createdAt,value
2023-03-08T00:00:21.494Z,82.64
2023-03-08T00:03:14.500Z,82.72
2023-03-08T00:05:42.568Z,82.86
2023-03-08T00:08:10.378Z,83.02
2023-03-08T00:10:38.535Z,83.20
2023-03-08T00:13:07.099Z,83.44
2023-03-08T00:15:38.060Z,83.53
2023-03-08T00:18:06.518Z,83.54
2023-03-08T00:20:34.304Z,83.61
2023-03-08T00:23:01.997Z,83.83
2023-03-08T00:25:29.792Z,83.94
2023-03-08T00:27:57.623Z,83.84
2023-03-08T00:30:25.696Z,83.31
2023-03-08T00:32:55.994Z,83.30
2023-03-08T00:35:23.666Z,83.60
2023-03-08T00:37:51.526Z,83.90
2023-03-08T01:02:59.907Z,83.82
2023-03-08T01:06:10.045Z,83.39
2023-03-08T01:08:55.481Z,83.38
2023-03-08T01:11:27.097Z,83.45
2023-03-08T01:13:55.263Z,83.58
2023-03-08T01:16:29.693Z,83.36
2023-03-08T01:19:00.884Z,83.40
2023-03-08T01:21:30.748Z,83.69
2023-03-08T01:23:59.795Z,83.81
2023-03-08T01:26:29.297Z,83.82
2023-03-08T01:28:57.766Z,83.77
2023-03-08T01:31:28.244Z,83.93
2023-03-08T01:33:57.843Z,83.92
2023-03-08T01:36:26.891Z,84.12
2023-03-08T01:38:55.112Z,83.91
2023-03-08T01:41:26.490Z,83.81
2023-03-08T01:43:55.401Z,84.11
2023-03-08T01:46:28.018Z,84.26
2023-03-08T01:49:15.797Z,84.54
2023-03-08T01:52:09.694Z,84.69
2023-03-08T01:54:49.986Z,84.67
2023-03-08T01:57:23.704Z,84.71
2023-03-08T01:59:56.835Z,84.76
2023-03-08T02:02:31.505Z,84.79
2023-03-08T02:04:59.226Z,84.64
2023-03-08T02:07:27.307Z,84.68
2023-03-08T02:09:55.136Z,84.69
2023-03-08T02:12:23.488Z,84.81
2023-03-08T02:14:51.174Z,84.77
2023-03-08T02:17:19.314Z,84.86
2023-03-08T02:19:55.900Z,84.85
2023-03-08T02:22:24.378Z,84.91
2023-03-08T02:24:52.030Z,84.89
2023-03-08T02:27:28.401Z,85.01
2023-03-08T02:29:56.082Z,84.98
2023-03-08T02:32:23.858Z,84.95
2023-03-08T02:34:51.669Z,84.92
2023-03-08T02:37:19.412Z,84.85
2023-03-08T02:39:48.829Z,84.72
2023-03-08T02:42:16.605Z,84.80
2023-03-08T02:44:44.266Z,84.76
2023-03-08T02:47:11.954Z,84.79
2023-03-08T02:49:39.778Z,84.80
2023-03-08T02:52:10.083Z,84.78
2023-03-08T02:54:37.757Z,84.83
2023-03-08T02:57:05.493Z,85.07
2023-03-08T02:59:33.417Z,85.07
2023-03-08T03:02:01.155Z,85.20
2023-03-08T03:04:32.300Z,85.39
2023-03-08T03:07:00.937Z,85.50
2023-03-08T03:09:29.614Z,85.61
2023-03-08T03:11:57.530Z,85.62
2023-03-08T03:14:28.256Z,85.72
2023-03-08T03:16:56.638Z,85.92
2023-03-08T03:19:24.371Z,85.99
2023-03-08T03:21:52.074Z,85.96
2023-03-08T03:24:19.973Z,86.07
2023-03-08T03:26:56.662Z,86.04
2023-03-08T03:29:25.793Z,86.13
2023-03-08T03:31:58.064Z,86.29
2023-03-08T03:34:25.839Z,86.41
2023-03-08T03:36:53.622Z,86.56
2023-03-08T03:39:21.429Z,86.60
2023-03-08T03:41:49.320Z,86.68
2023-03-08T03:44:17.259Z,86.75
2023-03-08T03:46:45.652Z,86.74
2023-03-08T03:49:15.311Z,86.86
2023-03-08T03:51:44.377Z,86.96
2023-03-08T03:54:19.242Z,87.05
2023-03-08T03:56:47.389Z,87.02
2023-03-08T03:59:15.263Z,87.11
2023-03-08T04:01:43.178Z,87.20
2023-03-08T04:04:17.184Z,87.31
2023-03-08T04:06:45.425Z,87.45
2023-03-08T04:09:16.933Z,87.59
2023-03-08T04:11:46.516Z,87.54
2023-03-08T04:14:17.771Z,87.55
2023-03-08T04:16:45.516Z,87.57
2023-03-08T04:19:23.801Z,87.53
2023-03-08T04:21:54.077Z,87.52
2023-03-08T04:24:24.149Z,87.53
2023-03-08T04:26:54.326Z,87.48
2023-03-08T04:29:22.588Z,87.48
2023-03-08T04:31:50.320Z,87.51
2023-03-08T04:34:19.403Z,87.52
2023-03-08T04:36:48.780Z,87.52
2023-03-08T04:39:16.850Z,87.42
2023-03-08T04:41:45.067Z,87.42
2023-03-08T04:44:19.944Z,87.39
2023-03-08T04:46:49.061Z,87.33
2023-03-08T04:49:21.555Z,87.30
2023-03-08T04:51:53.112Z,87.21
2023-03-08T04:54:21.155Z,87.15
2023-03-08T04:56:53.547Z,87.12
2023-03-08T04:59:23.736Z,87.12
2023-03-08T05:01:51.829Z,87.05
2023-03-08T05:04:20.350Z,86.99
2023-03-08T05:06:48.172Z,86.94
2023-03-08T05:09:20.129Z,86.90
2023-03-08T05:11:49.209Z,86.87
2023-03-08T05:14:17.408Z,86.84
2023-03-08T05:16:45.852Z,86.80
2023-03-08T05:19:14.103Z,86.73
2023-03-08T05:21:48.002Z,86.70
2023-03-08T05:24:15.659Z,86.70
2023-03-08T05:26:43.479Z,86.72
2023-03-08T05:29:11.707Z,86.73
2023-03-08T05:31:40.154Z,86.76
2023-03-08T05:34:10.622Z,86.75
2023-03-08T05:36:38.484Z,86.68
2023-03-08T05:39:08.408Z,86.57
2023-03-08T05:41:51.347Z,86.37
2023-03-08T05:44:25.114Z,86.40
2023-03-08T05:46:53.617Z,86.48
2023-03-08T05:49:21.772Z,86.45
2023-03-08T05:51:50.627Z,86.32
2023-03-08T05:54:18.459Z,86.27
2023-03-08T05:56:47.360Z,86.25
2023-03-08T05:59:25.296Z,86.15
2023-03-08T06:01:53.227Z,86.04
2023-03-08T06:04:26.873Z,85.92
2023-03-08T06:06:57.657Z,85.85
2023-03-08T06:09:28.874Z,85.75
2023-03-08T06:11:56.852Z,85.71
2023-03-08T06:14:25.003Z,85.65
2023-03-08T06:16:53.115Z,85.57
2023-03-08T06:19:21.931Z,85.49
2023-03-08T06:21:51.191Z,85.47
2023-03-08T06:24:19.248Z,85.45
2023-03-08T06:26:47.605Z,85.33
2023-03-08T06:29:16.316Z,85.26
2023-03-08T06:31:44.181Z,85.21
2023-03-08T06:34:12.970Z,85.11
2023-03-08T06:36:40.951Z,85.04
2023-03-08T06:39:09.960Z,85.02
2023-03-08T06:41:37.961Z,84.85
2023-03-08T06:44:06.562Z,84.76
2023-03-08T06:46:34.270Z,84.64
2023-03-08T06:49:03.945Z,84.50
2023-03-08T06:51:33.888Z,84.52
2023-03-08T06:54:01.676Z,84.41
2023-03-08T06:56:29.668Z,84.15
2023-03-08T06:58:58.228Z,83.91
2023-03-08T07:01:26.084Z,83.42
2023-03-08T07:03:53.863Z,83.32
2023-03-08T07:06:21.474Z,83.03
2023-03-08T07:08:49.188Z,82.83
2023-03-08T07:11:16.831Z,82.48
2023-03-08T07:13:44.595Z,82.16
2023-03-08T07:16:13.735Z,81.92
2023-03-08T07:18:41.763Z,81.59
2023-03-08T07:21:10.330Z,81.66
2023-03-08T07:23:38.204Z,80.90
2023-03-08T07:26:07.580Z,80.38
2023-03-08T07:28:35.819Z,80.01
2023-03-08T07:31:03.602Z,79.83
2023-03-08T07:33:31.344Z,79.70
2023-03-08T07:36:02.259Z,79.59
2023-03-08T07:38:30.238Z,79.69
2023-03-08T07:40:58.026Z,79.24
2023-03-08T07:43:26.041Z,79.06
2023-03-08T07:46:02.543Z,78.27
2023-03-08T07:48:32.099Z,78.14
2023-03-08T07:51:09.409Z,79.46
2023-03-08T07:53:37.770Z,78.24
2023-03-08T07:56:06.247Z,77.41
2023-03-08T07:58:34.194Z,77.22
2023-03-08T08:01:02.065Z,76.55
2023-03-08T08:03:29.997Z,75.81
2023-03-08T08:06:02.226Z,75.63
2023-03-08T08:08:30.087Z,75.50
2023-03-08T08:10:58.529Z,75.38
2023-03-08T08:13:26.463Z,74.69
2023-03-08T08:15:59.620Z,74.43
2023-03-08T08:18:28.340Z,74.10
2023-03-08T08:21:05.426Z,72.95
2023-03-08T08:23:36.339Z,72.59
2023-03-08T08:26:09.719Z,71.51
2023-03-08T08:28:39.981Z,71.35
2023-03-08T08:31:14.416Z,70.68
2023-03-08T08:33:42.698Z,70.69
2023-03-08T08:36:16.814Z,70.30
2023-03-08T08:38:46.191Z,69.54
2023-03-08T08:41:16.278Z,69.96
2023-03-08T08:43:45.640Z,70.15
2023-03-08T08:46:14.232Z,69.63
2023-03-08T08:48:43.018Z,69.12
2023-03-08T08:51:13.061Z,68.71
2023-03-08T08:53:41.078Z,68.61
2023-03-08T08:56:25.655Z,67.92
2023-03-08T08:59:00.483Z,67.00
2023-03-08T09:01:31.015Z,66.51
2023-03-08T09:03:59.474Z,66.19
2023-03-08T09:06:28.412Z,65.15
2023-03-08T09:08:58.820Z,63.95
2023-03-08T09:11:28.040Z,63.24
2023-03-08T09:13:56.048Z,62.62
2023-03-08T09:16:25.594Z,63.00
2023-03-08T09:18:56.272Z,63.05
2023-03-08T09:21:25.632Z,62.59
2023-03-08T09:23:53.840Z,62.18
2023-03-08T09:26:21.732Z,62.36
2023-03-08T09:28:49.461Z,61.29
2023-03-08T09:31:18.320Z,60.42
2023-03-08T09:33:48.776Z,60.45
2023-03-08T09:36:16.582Z,59.68
2023-03-08T09:38:46.589Z,58.24
2023-03-08T09:41:32.376Z,58.09
2023-03-08T09:44:09.327Z,57.82
2023-03-08T09:46:42.871Z,56.10
2023-03-08T09:49:16.741Z,55.01
2023-03-08T09:51:49.041Z,55.38
2023-03-08T09:54:21.961Z,54.95
2023-03-08T09:56:52.274Z,55.06
2023-03-08T09:59:35.043Z,55.19
2023-03-08T10:02:17.144Z,56.73
2023-03-08T10:04:59.595Z,56.67
2023-03-08T10:07:55.263Z,55.50
2023-03-08T10:10:47.253Z,55.45
2023-03-08T10:13:21.099Z,55.43
2023-03-08T10:15:51.952Z,55.21
2023-03-08T10:18:35.933Z,54.72
2023-03-08T10:21:03.975Z,54.45
2023-03-08T10:23:35.293Z,54.72
2023-03-08T10:26:09.542Z,54.96
2023-03-08T10:28:37.823Z,54.15
2023-03-08T10:31:19.043Z,53.06
2023-03-08T10:33:49.270Z,52.85
2023-03-08T10:36:20.318Z,52.04
2023-03-08T10:39:08.561Z,51.69
2023-03-08T10:41:37.651Z,50.92
2023-03-08T10:44:05.716Z,51.30
2023-03-08T10:46:33.979Z,50.65
2023-03-08T10:49:18.187Z,51.42
2023-03-08T10:52:00.357Z,51.18
2023-03-08T10:54:29.426Z,51.10
2023-03-08T10:57:02.311Z,51.60
2023-03-08T10:59:34.598Z,51.42
2023-03-08T11:02:15.484Z,51.28
2023-03-08T11:04:53.667Z,51.19
2023-03-08T11:07:26.115Z,50.72
2023-03-08T11:10:14.893Z,50.55
2023-03-08T11:12:43.798Z,51.18
2023-03-08T11:15:20.621Z,51.52
2023-03-08T11:17:54.467Z,51.84
2023-03-08T11:20:28.594Z,52.77
2023-03-08T11:23:15.449Z,52.87
2023-03-08T11:25:48.511Z,53.04
2023-03-08T11:28:28.538Z,52.20
2023-03-08T11:31:08.876Z,52.05
2023-03-08T11:34:08.948Z,51.80
2023-03-08T11:37:02.554Z,51.58
2023-03-08T11:39:34.056Z,51.48
2023-03-08T11:42:21.598Z,52.31
2023-03-08T11:45:30.936Z,52.23
2023-03-08T11:48:16.963Z,53.13
2023-03-08T11:50:53.707Z,53.38
2023-03-08T11:53:37.348Z,53.57
2023-03-08T11:56:28.629Z,53.75
2023-03-08T11:59:11.380Z,52.72
2023-03-08T12:01:47.517Z,50.84
2023-03-08T12:04:34.040Z,50.17
2023-03-08T12:07:08.080Z,49.75
2023-03-08T12:09:58.897Z,49.42
2023-03-08T12:12:43.972Z,49.76
2023-03-08T12:15:24.399Z,49.50
2023-03-08T12:17:57.635Z,49.93
2023-03-08T12:20:31.589Z,50.28
2023-03-08T12:23:25.551Z,50.64
2023-03-08T12:26:13.195Z,50.95
2023-03-08T12:28:49.193Z,51.36
2023-03-08T12:31:30.095Z,51.69
2023-03-08T12:34:00.026Z,52.11
2023-03-08T12:36:43.982Z,52.24
2023-03-08T12:39:35.458Z,52.36
2023-03-08T12:42:09.275Z,52.36
2023-03-08T12:44:38.715Z,53.06
2023-03-08T12:47:13.188Z,53.11
2023-03-08T12:49:47.444Z,52.82
2023-03-08T12:52:18.485Z,52.57
2023-03-08T12:55:09.115Z,52.62
2023-03-08T12:57:46.053Z,52.90
2023-03-08T13:00:20.174Z,53.11
2023-03-08T13:03:03.036Z,53.43
2023-03-08T13:05:32.821Z,53.27
2023-03-08T13:08:12.918Z,52.66
2023-03-08T13:10:49.881Z,52.37
2023-03-08T13:13:35.286Z,52.77
2023-03-08T13:16:23.042Z,51.93
2023-03-08T13:19:02.296Z,52.26
2023-03-08T13:21:36.470Z,52.55
2023-03-08T13:24:43.184Z,53.00
2023-03-08T13:27:21.717Z,53.03
2023-03-08T13:29:49.706Z,51.02
2023-03-08T13:32:21.367Z,49.83
2023-03-08T13:35:01.418Z,49.94
2023-03-08T13:37:30.171Z,49.80
2023-03-08T13:40:00.621Z,48.56
2023-03-08T13:42:29.570Z,48.15
2023-03-08T13:45:16.149Z,48.20
2023-03-08T13:47:46.484Z,48.23
2023-03-08T13:50:45.455Z,47.64
2023-03-08T13:53:25.668Z,47.48
2023-03-08T13:55:57.011Z,47.30
2023-03-08T13:58:40.311Z,47.17
2023-03-08T14:01:18.726Z,47.57
2023-03-08T14:03:47.362Z,47.58
2023-03-08T14:06:23.992Z,47.66
2023-03-08T14:08:53.586Z,47.82
2023-03-08T14:11:24.878Z,47.65
2023-03-08T14:13:54.938Z,47.94
2023-03-08T14:16:31.485Z,48.28
2023-03-08T14:19:09.604Z,48.67
2023-03-08T14:21:37.838Z,48.93
2023-03-08T14:24:10.341Z,48.52
2023-03-08T14:26:40.281Z,48.72
2023-03-08T14:29:11.116Z,49.31
2023-03-08T14:31:39.846Z,48.90
2023-03-08T14:34:22.803Z,49.25
2023-03-08T14:36:58.461Z,49.85
2023-03-08T14:39:30.803Z,49.93
2023-03-08T14:42:08.038Z,50.29
2023-03-08T14:44:37.517Z,50.41
2023-03-08T14:47:11.045Z,50.52
2023-03-08T14:49:38.865Z,50.61
2023-03-08T14:52:20.227Z,50.95
2023-03-08T14:54:47.905Z,51.14
2023-03-08T14:57:22.981Z,51.37
2023-03-08T14:59:51.495Z,51.63
2023-03-08T15:02:19.354Z,51.78
2023-03-08T15:04:47.949Z,52.09
2023-03-08T15:07:22.945Z,52.39
2023-03-08T15:09:51.770Z,52.37
2023-03-08T15:12:19.575Z,52.60
2023-03-08T15:14:47.377Z,52.98
2023-03-08T15:17:15.138Z,53.48
2023-03-08T15:19:43.262Z,53.89
2023-03-08T15:22:14.025Z,54.16
2023-03-08T15:24:41.848Z,54.60
2023-03-08T15:27:16.337Z,54.92
2023-03-08T15:29:44.051Z,54.92
2023-03-08T15:32:11.993Z,55.12
2023-03-08T15:34:40.792Z,55.32
2023-03-08T15:37:14.328Z,55.80
2023-03-08T15:39:43.132Z,56.12
2023-03-08T15:42:10.931Z,56.38
2023-03-08T15:44:38.798Z,56.54
2023-03-08T15:47:06.680Z,56.86
2023-03-08T15:49:35.162Z,57.16
2023-03-08T15:52:02.878Z,57.63
2023-03-08T15:54:32.328Z,57.58
2023-03-08T15:57:00.144Z,57.72
2023-03-08T15:59:27.807Z,58.04
2023-03-08T16:01:55.589Z,58.32
2023-03-08T16:04:23.312Z,58.61
2023-03-08T16:06:51.162Z,58.83
2023-03-08T16:09:18.945Z,58.97
2023-03-08T16:11:48.195Z,59.42
2023-03-08T16:14:17.872Z,59.79
2023-03-08T16:16:46.218Z,60.23
2023-03-08T16:19:14.059Z,60.72
2023-03-08T16:21:41.921Z,61.49
2023-03-08T16:24:11.021Z,61.78
2023-03-08T16:26:38.773Z,62.25
2023-03-08T16:29:06.731Z,63.10
2023-03-08T16:31:35.686Z,63.99
2023-03-08T16:34:04.412Z,64.67
2023-03-08T16:36:33.280Z,64.86
2023-03-08T16:39:01.568Z,64.90
2023-03-08T16:41:30.087Z,64.91
2023-03-08T16:43:58.161Z,65.26
2023-03-08T16:46:26.272Z,66.15
2023-03-08T16:48:55.956Z,67.18
2023-03-08T16:51:26.531Z,67.72
2023-03-08T16:53:54.910Z,68.58
2023-03-08T16:56:28.164Z,68.85
2023-03-08T16:58:58.453Z,69.06
2023-03-08T17:01:26.756Z,68.75
2023-03-08T17:03:56.499Z,68.83
2023-03-08T17:06:25.535Z,69.40
2023-03-08T17:08:53.295Z,68.69
2023-03-08T17:11:23.802Z,69.34
2023-03-08T17:13:55.348Z,70.12
2023-03-08T17:16:26.198Z,69.97
2023-03-08T17:18:55.075Z,70.10
2023-03-08T17:21:23.101Z,70.33
2023-03-08T17:23:52.261Z,70.71
2023-03-08T17:26:21.460Z,71.16
2023-03-08T17:28:50.722Z,70.95
2023-03-08T17:31:21.178Z,71.21
2023-03-08T17:33:49.539Z,71.31
2023-03-08T17:36:17.888Z,71.52
2023-03-08T17:38:46.195Z,71.36
2023-03-08T17:41:15.557Z,71.21
2023-03-08T17:43:43.375Z,71.25
2023-03-08T17:46:18.076Z,70.79
2023-03-08T17:48:46.242Z,71.26
2023-03-08T17:51:18.116Z,71.13
2023-03-08T17:53:47.016Z,71.64
2023-03-08T17:56:17.835Z,71.63
2023-03-08T17:58:45.649Z,72.12
2023-03-08T18:01:14.906Z,72.01
2023-03-08T18:03:42.800Z,72.15
2023-03-08T18:06:24.857Z,73.32
2023-03-08T18:08:52.931Z,73.74
2023-03-08T18:11:20.755Z,74.23
2023-03-08T18:13:48.871Z,75.14
2023-03-08T18:16:16.839Z,75.95
2023-03-08T18:18:49.773Z,76.11
2023-03-08T18:21:19.194Z,75.74
2023-03-08T18:23:47.804Z,76.01
2023-03-08T18:26:17.471Z,76.48
2023-03-08T18:28:45.342Z,76.35
2023-03-08T18:31:23.107Z,77.40
2023-03-08T18:33:54.681Z,77.78
2023-03-08T18:36:23.985Z,78.03
2023-03-08T18:38:52.176Z,78.16
2023-03-08T18:41:27.096Z,79.13
2023-03-08T18:43:56.694Z,79.48
2023-03-08T18:46:29.151Z,79.36
2023-03-08T18:49:08.841Z,79.75
2023-03-08T18:51:38.545Z,79.98
2023-03-08T18:54:09.294Z,80.00
2023-03-08T18:56:37.356Z,80.27
2023-03-08T18:59:07.066Z,80.41
2023-03-08T19:01:36.020Z,80.19
2023-03-08T19:04:06.300Z,79.81
2023-03-08T19:06:37.509Z,79.79
2023-03-08T19:09:13.733Z,80.04
2023-03-08T19:11:42.572Z,80.41
2023-03-08T19:14:15.550Z,80.41
2023-03-08T19:16:43.911Z,80.16
2023-03-08T19:19:14.627Z,80.38
2023-03-08T19:21:44.803Z,80.04
2023-03-08T19:24:14.243Z,79.97
2023-03-08T19:26:46.845Z,80.13
2023-03-08T19:29:22.767Z,80.07
2023-03-08T19:31:50.374Z,79.96
2023-03-08T19:34:29.972Z,79.08
2023-03-08T19:36:58.472Z,79.55
2023-03-08T19:39:29.877Z,79.85
2023-03-08T19:42:00.393Z,79.72
2023-03-08T19:44:29.801Z,79.81
2023-03-08T19:46:57.936Z,79.41
2023-03-08T19:49:31.968Z,79.73
2023-03-08T19:52:02.024Z,80.65
2023-03-08T19:54:31.088Z,81.03
2023-03-08T19:56:59.766Z,80.76
2023-03-08T19:59:27.496Z,81.00
2023-03-08T20:01:55.976Z,81.19
2023-03-08T20:04:24.258Z,81.58
2023-03-08T20:06:52.553Z,81.63
2023-03-08T20:09:21.700Z,81.54
2023-03-08T20:11:57.710Z,82.13
2023-03-08T20:14:27.722Z,82.28
2023-03-08T20:16:56.340Z,82.48
2023-03-08T20:19:24.234Z,83.04
2023-03-08T20:21:52.086Z,83.28
2023-03-08T20:24:19.801Z,82.69
2023-03-08T20:26:47.657Z,83.12
2023-03-08T20:29:15.631Z,83.49
2023-03-08T20:31:44.010Z,83.62
2023-03-08T20:34:11.708Z,83.47
2023-03-08T20:36:39.560Z,83.61
2023-03-08T20:39:07.413Z,83.99
2023-03-08T20:41:35.355Z,84.08
2023-03-08T20:44:03.250Z,84.28
2023-03-08T20:46:33.306Z,83.89
2023-03-08T20:49:01.718Z,83.53
2023-03-08T20:51:29.719Z,84.07
2023-03-08T20:53:57.585Z,84.41
2023-03-08T20:56:26.532Z,84.57
2023-03-08T20:58:56.632Z,84.66
2023-03-08T21:01:30.268Z,84.61
2023-03-08T21:03:58.045Z,84.67
2023-03-08T21:06:30.224Z,84.52
2023-03-08T21:08:59.488Z,84.60
2023-03-08T21:11:28.035Z,84.78
2023-03-08T21:13:56.433Z,85.10
2023-03-08T21:16:27.096Z,85.24
2023-03-08T21:18:57.509Z,85.44
2023-03-08T21:21:30.145Z,85.31
2023-03-08T21:24:00.100Z,85.36
2023-03-08T21:26:29.311Z,85.42
2023-03-08T21:29:04.195Z,85.43
2023-03-08T21:31:37.581Z,85.49
2023-03-08T21:34:06.603Z,85.29
2023-03-08T21:36:36.488Z,85.31
2023-03-08T21:39:05.534Z,85.22
2023-03-08T21:41:35.729Z,85.54
2023-03-08T21:44:09.462Z,85.72
2023-03-08T21:46:38.818Z,85.78
2023-03-08T21:49:07.936Z,85.64
2023-03-08T21:51:37.086Z,85.68
2023-03-08T21:54:06.029Z,85.86
2023-03-08T21:56:35.789Z,85.67
2023-03-08T21:59:03.973Z,85.72
2023-03-08T22:01:32.907Z,85.74
2023-03-08T22:04:02.282Z,85.92
2023-03-08T22:06:30.454Z,85.91
2023-03-08T22:08:58.531Z,85.79
2023-03-08T22:11:26.591Z,85.98
2023-03-08T22:13:57.640Z,86.16
2023-03-08T22:16:27.233Z,86.31
2023-03-08T22:19:00.695Z,86.34
2023-03-08T22:21:29.008Z,86.30
2023-03-08T22:23:59.180Z,86.10
2023-03-08T22:26:28.714Z,86.24
2023-03-08T22:28:57.293Z,86.35
2023-03-08T22:31:27.182Z,86.43
2023-03-08T22:33:55.193Z,86.49
2023-03-08T22:36:23.341Z,86.40
2023-03-08T22:38:51.195Z,86.45
2023-03-08T22:41:22.288Z,86.45
2023-03-08T22:43:50.954Z,86.51
2023-03-08T22:46:22.018Z,86.24
2023-03-08T22:48:50.695Z,85.92
2023-03-08T22:51:21.236Z,85.84
2023-03-08T22:53:49.572Z,85.95
2023-03-08T22:56:23.623Z,86.14
2023-03-08T22:58:52.025Z,86.11
2023-03-08T23:01:21.763Z,85.98
2023-03-08T23:03:52.639Z,85.90
2023-03-08T23:06:20.722Z,86.02
2023-03-08T23:08:48.372Z,86.19
2023-03-08T23:11:17.104Z,86.39
2023-03-08T23:13:44.904Z,86.33
2023-03-08T23:16:14.685Z,86.34
2023-03-08T23:18:43.078Z,86.35
2023-03-08T23:21:14.069Z,86.25
2023-03-08T23:37:32.270Z,87.93
2023-03-08T23:40:00.114Z,87.84
2023-03-08T23:42:27.798Z,87.74
2023-03-08T23:44:55.538Z,87.52
2023-03-08T23:47:23.187Z,87.42
2023-03-08T23:49:51.706Z,87.37
2023-03-08T23:52:21.101Z,87.32
2023-03-08T23:54:48.911Z,87.22
2023-03-08T23:57:16.566Z,87.21
2023-03-08T23:59:44.263Z,87.16
